createdAt,value
2023-04-18T00:01:56.405Z,7.22
2023-04-18T00:04:23.657Z,7.10
2023-04-18T00:06:51.328Z,7.55
2023-04-18T00:09:18.402Z,7.38
2023-04-18T00:11:45.554Z,6.97
2023-04-18T00:14:13.682Z,6.75
2023-04-18T00:16:40.932Z,7.15
2023-04-18T00:19:08.766Z,2.42
2023-04-18T00:21:37.263Z,7.82
2023-04-18T00:24:04.486Z,7.47
2023-04-18T00:26:31.538Z,7.43
2023-04-18T00:28:58.508Z,8.40
2023-04-18T00:31:25.679Z,7.53
2023-04-18T00:33:52.832Z,7.25
2023-04-18T00:36:19.814Z,7.93
2023-04-18T00:38:46.774Z,6.57
2023-04-18T00:41:13.781Z,7.28
2023-04-18T00:43:40.775Z,7.82
2023-04-18T00:46:07.809Z,7.13
2023-04-18T00:48:34.921Z,7.88
2023-04-18T00:51:02.049Z,6.85
2023-04-18T00:53:30.200Z,7.28
2023-04-18T00:55:57.669Z,6.88
2023-04-18T00:58:24.999Z,6.97
2023-04-18T01:00:52.253Z,5.88
2023-04-18T01:03:19.996Z,7.78
2023-04-18T01:05:47.227Z,6.35
2023-04-18T01:08:14.764Z,6.50
2023-04-18T01:10:42.331Z,6.68
2023-04-18T01:13:17.835Z,7.28
2023-04-18T01:15:49.861Z,5.57
2023-04-18T01:18:17.928Z,5.40
2023-04-18T01:20:50.283Z,6.03
2023-04-18T01:23:19.260Z,6.38
2023-04-18T01:25:49.369Z,5.35
2023-04-18T01:28:16.550Z,7.15
2023-04-18T01:30:43.598Z,6.03
2023-04-18T01:33:11.039Z,6.45
2023-04-18T01:35:38.124Z,6.35
2023-04-18T01:38:05.125Z,6.28
2023-04-18T01:40:32.188Z,6.93
2023-04-18T01:42:59.198Z,7.28
2023-04-18T01:45:26.186Z,6.35
2023-04-18T01:47:53.162Z,7.28
2023-04-18T01:50:20.304Z,5.88
2023-04-18T01:52:47.362Z,7.28
2023-04-18T01:55:14.352Z,4.95
2023-04-18T01:57:41.532Z,7.18
2023-04-18T02:00:09.281Z,6.03
2023-04-18T02:02:36.437Z,6.40
2023-04-18T02:05:03.595Z,6.07
2023-04-18T02:07:30.576Z,5.88
2023-04-18T02:09:57.566Z,6.50
2023-04-18T02:12:24.586Z,5.80
2023-04-18T02:14:56.355Z,5.85
2023-04-18T02:17:23.996Z,5.60
2023-04-18T02:19:51.736Z,6.53
2023-04-18T02:22:18.893Z,6.72
2023-04-18T02:24:46.065Z,5.93
2023-04-18T02:27:13.085Z,6.63
2023-04-18T02:29:40.097Z,5.85
2023-04-18T02:32:07.423Z,6.60
2023-04-18T02:34:34.672Z,5.63
2023-04-18T02:37:01.640Z,6.70
2023-04-18T02:39:28.671Z,5.50
2023-04-18T02:41:55.620Z,5.60
2023-04-18T02:44:22.567Z,6.43
2023-04-18T02:46:49.567Z,5.07
2023-04-18T02:49:16.512Z,6.05
2023-04-18T02:51:43.467Z,6.10
2023-04-18T02:54:10.458Z,6.10
2023-04-18T02:56:40.069Z,5.30
2023-04-18T02:59:07.639Z,5.03
2023-04-18T03:01:34.812Z,5.53
2023-04-18T03:04:01.891Z,5.35
2023-04-18T03:06:28.899Z,4.97
2023-04-18T03:08:56.036Z,5.90
2023-04-18T03:11:23.022Z,5.25
2023-04-18T03:13:50.022Z,5.32
2023-04-18T03:16:17.683Z,6.57
2023-04-18T03:18:44.706Z,4.53
2023-04-18T03:21:11.852Z,4.38
2023-04-18T03:23:39.082Z,5.05
2023-04-18T03:26:08.090Z,4.95
2023-04-18T03:28:35.137Z,6.03
2023-04-18T03:31:02.254Z,4.13
2023-04-18T03:33:29.368Z,4.70
2023-04-18T03:35:56.344Z,5.72
2023-04-18T03:38:23.337Z,5.63
2023-04-18T03:40:50.413Z,4.95
2023-04-18T03:43:18.728Z,4.72
2023-04-18T03:45:47.493Z,5.57
2023-04-18T03:48:14.932Z,5.78
2023-04-18T03:50:42.058Z,4.82
2023-04-18T03:53:09.114Z,5.80
2023-04-18T03:55:36.146Z,5.40
2023-04-18T03:58:03.131Z,5.43
2023-04-18T04:00:30.302Z,4.07
2023-04-18T04:02:57.620Z,5.05
2023-04-18T04:05:24.887Z,4.68
2023-04-18T04:07:51.906Z,5.70
2023-04-18T04:10:19.014Z,5.40
2023-04-18T04:12:46.926Z,4.75
2023-04-18T04:15:13.933Z,5.45
2023-04-18T04:17:41.028Z,4.82
2023-04-18T04:20:09.345Z,5.40
2023-04-18T04:22:36.842Z,4.85
2023-04-18T04:25:05.212Z,3.97
2023-04-18T04:27:34.098Z,4.97
2023-04-18T04:30:05.256Z,4.28
2023-04-18T04:32:33.126Z,4.75
2023-04-18T04:35:00.662Z,5.55
2023-04-18T04:37:28.196Z,4.28
2023-04-18T04:39:56.611Z,5.47
2023-04-18T04:42:25.212Z,3.95
2023-04-18T04:44:53.717Z,5.00
2023-04-18T04:47:20.880Z,4.90
2023-04-18T04:49:47.823Z,4.70
2023-04-18T04:52:14.786Z,4.38
2023-04-18T04:54:41.872Z,5.40
2023-04-18T04:57:08.845Z,5.00
2023-04-18T04:59:36.227Z,4.32
2023-04-18T05:02:03.457Z,5.07
2023-04-18T05:04:30.829Z,5.25
2023-04-18T05:06:58.175Z,4.28
2023-04-18T05:09:26.152Z,5.03
2023-04-18T05:11:53.122Z,5.00
2023-04-18T05:14:20.818Z,3.70
2023-04-18T05:16:47.952Z,4.38
2023-04-18T05:19:14.981Z,5.00
2023-04-18T05:21:41.938Z,5.47
2023-04-18T05:24:09.113Z,3.72
2023-04-18T05:26:36.296Z,4.82
2023-04-18T05:29:03.510Z,4.85
2023-04-18T05:31:30.964Z,5.63
2023-04-18T05:33:58.003Z,2.85
2023-04-18T05:36:25.079Z,4.72
2023-04-18T05:38:52.061Z,4.32
2023-04-18T05:41:19.020Z,4.35
2023-04-18T05:43:51.146Z,3.13
2023-04-18T05:46:29.379Z,5.10
2023-04-18T05:48:57.025Z,2.05
2023-04-18T05:51:23.997Z,1.45
2023-04-18T05:53:51.155Z,1.00
2023-04-18T05:56:18.125Z,1.20
2023-04-18T05:58:46.778Z,1.33
2023-04-18T06:01:18.568Z,1.20
2023-04-18T06:03:45.799Z,1.10
2023-04-18T06:06:13.242Z,0.88
2023-04-18T06:08:40.617Z,0.98
2023-04-18T06:11:09.016Z,1.00
2023-04-18T06:13:37.219Z,1.20
2023-04-18T06:16:05.032Z,1.25
2023-04-18T06:18:32.085Z,1.63
2023-04-18T06:20:59.065Z,0.90
2023-04-18T06:23:26.052Z,1.23
2023-04-18T06:25:53.106Z,1.02
2023-04-18T06:28:20.081Z,1.08
2023-04-18T06:30:47.045Z,1.02
2023-04-18T06:33:14.012Z,1.73
2023-04-18T06:35:41.333Z,1.10
2023-04-18T06:38:08.899Z,0.95
2023-04-18T06:40:36.044Z,0.68
2023-04-18T06:43:03.125Z,1.10
2023-04-18T06:45:33.127Z,0.57
2023-04-18T06:48:02.600Z,1.33
2023-04-18T06:50:30.232Z,0.80
2023-04-18T06:52:57.300Z,1.52
2023-04-18T06:55:24.272Z,0.80
2023-04-18T06:57:51.344Z,0.93
2023-04-18T07:00:18.600Z,1.55
2023-04-18T07:02:45.731Z,0.75
2023-04-18T07:05:12.843Z,1.00
2023-04-18T07:07:39.844Z,1.00
2023-04-18T07:10:09.614Z,1.40
2023-04-18T07:12:36.665Z,0.90
2023-04-18T07:15:04.724Z,1.10
2023-04-18T07:17:32.069Z,0.98
2023-04-18T07:19:59.519Z,1.00
2023-04-18T07:22:26.521Z,0.68
2023-04-18T07:24:53.539Z,1.10
2023-04-18T07:27:20.629Z,1.02
2023-04-18T07:29:47.616Z,0.90
2023-04-18T07:32:14.604Z,1.35
2023-04-18T07:34:41.704Z,1.48
2023-04-18T07:37:08.799Z,0.80
2023-04-18T07:39:36.230Z,0.63
2023-04-18T07:42:06.491Z,0.90
2023-04-18T07:44:35.833Z,1.08
2023-04-18T07:47:03.385Z,1.65
2023-04-18T07:49:30.343Z,0.70
2023-04-18T07:51:57.800Z,1.10
2023-04-18T07:54:24.757Z,0.93
2023-04-18T07:56:51.671Z,1.65
2023-04-18T07:59:19.289Z,0.93
2023-04-18T08:01:46.313Z,0.93
2023-04-18T08:04:14.774Z,0.93
2023-04-18T08:06:42.051Z,0.90
2023-04-18T08:09:09.168Z,0.68
2023-04-18T08:11:36.241Z,1.13
2023-04-18T08:14:03.372Z,0.80
2023-04-18T08:16:30.596Z,0.77
2023-04-18T08:18:57.602Z,1.08
2023-04-18T08:21:24.663Z,0.90
2023-04-18T08:23:51.616Z,1.05
2023-04-18T08:26:19.640Z,0.85
2023-04-18T08:28:46.804Z,1.10
2023-04-18T08:31:16.404Z,0.95
2023-04-18T08:33:43.624Z,1.63
2023-04-18T08:36:12.093Z,1.20
2023-04-18T08:38:39.111Z,0.93
2023-04-18T08:41:06.141Z,0.73
2023-04-18T08:43:33.202Z,0.95
2023-04-18T08:46:00.919Z,1.15
2023-04-18T08:48:28.439Z,0.98
2023-04-18T08:50:59.369Z,0.90
2023-04-18T08:53:27.488Z,1.30
2023-04-18T08:55:57.315Z,0.93
2023-04-18T08:58:27.391Z,1.15
2023-04-18T09:00:55.416Z,1.15
2023-04-18T09:03:43.220Z,0.82
2023-04-18T09:06:19.366Z,1.20
2023-04-18T09:08:59.354Z,1.02
2023-04-18T09:11:29.283Z,0.80
2023-04-18T09:13:58.894Z,1.50
2023-04-18T09:16:27.821Z,0.73
2023-04-18T09:19:18.602Z,1.17
2023-04-18T09:21:48.886Z,0.88
2023-04-18T09:24:21.213Z,0.73
2023-04-18T09:26:49.867Z,0.82
2023-04-18T09:29:18.694Z,0.60
2023-04-18T09:32:02.528Z,1.00
2023-04-18T09:34:29.891Z,0.65
2023-04-18T09:37:14.973Z,0.65
2023-04-18T09:39:44.546Z,1.00
2023-04-18T09:42:12.537Z,1.27
2023-04-18T09:45:06.298Z,1.20
2023-04-18T09:47:36.444Z,0.80
2023-04-18T09:50:06.988Z,0.80
2023-04-18T09:52:42.723Z,1.08
2023-04-18T09:55:16.331Z,1.48
2023-04-18T09:57:47.465Z,1.48
2023-04-18T10:00:27.200Z,0.90
2023-04-18T10:03:08.156Z,0.60
2023-04-18T10:05:38.797Z,1.35
2023-04-18T10:08:07.363Z,1.00
2023-04-18T10:10:34.543Z,1.10
2023-04-18T10:13:05.472Z,1.20
2023-04-18T10:15:32.973Z,1.55
2023-04-18T10:18:11.118Z,0.85
2023-04-18T10:20:41.497Z,0.90
2023-04-18T10:23:36.177Z,1.10
2023-04-18T10:26:08.585Z,0.98
2023-04-18T10:28:57.161Z,1.25
2023-04-18T10:31:29.343Z,1.02
2023-04-18T10:34:05.361Z,0.85
2023-04-18T10:36:33.392Z,0.80
2023-04-18T10:39:21.414Z,1.20
2023-04-18T10:41:51.937Z,0.80
2023-04-18T10:44:22.887Z,0.80
2023-04-18T10:46:53.095Z,1.10
2023-04-18T10:49:30.253Z,1.45
2023-04-18T10:52:02.201Z,0.63
2023-04-18T10:54:51.609Z,0.80
2023-04-18T10:57:18.600Z,0.60
2023-04-18T10:59:51.070Z,0.93
2023-04-18T11:02:30.178Z,0.82
2023-04-18T11:05:02.918Z,1.00
2023-04-18T11:07:34.452Z,1.08
2023-04-18T11:10:02.214Z,1.10
2023-04-18T11:12:36.350Z,1.08
2023-04-18T11:15:11.900Z,0.88
2023-04-18T11:17:40.252Z,1.30
2023-04-18T11:20:14.186Z,0.95
2023-04-18T11:22:50.344Z,0.77
2023-04-18T11:25:22.203Z,1.00
2023-04-18T11:27:51.681Z,0.53
2023-04-18T11:30:19.024Z,0.85
2023-04-18T11:32:46.149Z,0.82
2023-04-18T11:35:15.477Z,1.00
2023-04-18T11:37:45.458Z,0.73
2023-04-18T11:40:14.158Z,0.52
2023-04-18T11:42:42.391Z,1.15
2023-04-18T11:45:14.699Z,1.00
2023-04-18T11:47:43.477Z,0.65
2023-04-18T11:50:13.248Z,0.63
2023-04-18T11:52:42.487Z,0.88
2023-04-18T11:55:21.259Z,1.30
2023-04-18T11:57:57.596Z,1.17
2023-04-18T12:00:37.596Z,0.93
2023-04-18T12:03:16.300Z,0.70
2023-04-18T12:05:45.598Z,0.93
2023-04-18T12:08:20.438Z,1.10
2023-04-18T12:10:53.421Z,1.00
2023-04-18T12:13:32.388Z,0.80
2023-04-18T12:16:02.670Z,0.90
2023-04-18T12:18:30.007Z,0.85
2023-04-18T12:20:58.628Z,0.90
2023-04-18T12:23:40.217Z,1.00
2023-04-18T12:26:22.504Z,0.75
2023-04-18T12:28:54.043Z,0.77
2023-04-18T12:31:22.421Z,0.90
2023-04-18T12:33:50.568Z,0.80
2023-04-18T12:36:17.869Z,0.70
2023-04-18T12:38:45.740Z,1.00
2023-04-18T12:41:12.781Z,1.00
2023-04-18T12:43:39.748Z,0.70
2023-04-18T12:46:06.813Z,0.73
2023-04-18T12:48:33.782Z,0.60
2023-04-18T12:51:00.856Z,1.10
2023-04-18T12:53:27.836Z,0.93
2023-04-18T12:55:54.880Z,0.55
2023-04-18T12:58:21.882Z,1.00
2023-04-18T13:00:49.017Z,0.40
2023-04-18T13:03:16.304Z,0.75
2023-04-18T13:05:43.598Z,0.82
2023-04-18T13:08:16.959Z,1.10
2023-04-18T13:10:46.360Z,0.82
2023-04-18T13:13:13.573Z,0.80
2023-04-18T13:15:41.210Z,0.60
2023-04-18T13:18:08.535Z,0.90
2023-04-18T13:20:36.661Z,0.93
2023-04-18T13:23:03.937Z,0.93
2023-04-18T13:25:31.354Z,0.82
2023-04-18T13:28:01.409Z,0.73
2023-04-18T13:30:28.583Z,0.63
2023-04-18T13:32:55.593Z,0.73
2023-04-18T13:35:22.597Z,0.68
2023-04-18T13:37:49.631Z,0.80
2023-04-18T13:40:16.650Z,1.02
2023-04-18T13:42:43.794Z,0.90
2023-04-18T13:45:11.168Z,0.68
2023-04-18T13:47:38.372Z,0.60
2023-04-18T13:50:06.413Z,0.82
2023-04-18T13:52:33.668Z,0.93
2023-04-18T13:55:01.116Z,1.13
2023-04-18T13:57:28.461Z,1.05
2023-04-18T13:59:55.618Z,1.25
2023-04-18T14:02:22.908Z,0.60
2023-04-18T14:04:50.053Z,0.90
2023-04-18T14:07:17.730Z,1.05
2023-04-18T14:09:44.731Z,1.00
2023-04-18T14:12:11.794Z,0.63
2023-04-18T14:14:38.876Z,0.88
2023-04-18T14:17:06.551Z,1.08
2023-04-18T14:19:34.838Z,0.90
2023-04-18T14:22:01.843Z,0.63
2023-04-18T14:24:28.847Z,0.90
2023-04-18T14:26:55.921Z,0.80
2023-04-18T14:29:22.917Z,0.82
2023-04-18T14:31:50.347Z,1.08
2023-04-18T14:34:17.341Z,0.50
2023-04-18T14:36:44.343Z,0.90
2023-04-18T14:39:11.577Z,1.10
2023-04-18T14:41:38.714Z,0.82
2023-04-18T14:44:05.833Z,0.95
2023-04-18T14:46:32.856Z,0.90
2023-04-18T14:49:00.561Z,1.17
2023-04-18T14:51:27.748Z,0.80
2023-04-18T14:53:55.568Z,0.98
2023-04-18T14:56:24.262Z,0.90
2023-04-18T14:58:51.330Z,1.13
2023-04-18T15:01:18.609Z,5.38
2023-04-18T15:03:45.930Z,6.95
2023-04-18T15:06:13.321Z,6.18
2023-04-18T15:08:40.664Z,3.45
2023-04-18T15:11:08.250Z,5.78
2023-04-18T15:13:35.762Z,5.00
2023-04-18T15:16:03.114Z,3.63
2023-04-18T15:18:30.322Z,5.68
2023-04-18T15:21:00.897Z,5.65
2023-04-18T15:23:28.373Z,5.72
2023-04-18T15:25:56.258Z,3.88
2023-04-18T15:28:23.403Z,3.80
2023-04-18T15:30:50.605Z,5.40
2023-04-18T15:33:19.149Z,5.40
2023-04-18T15:35:47.724Z,5.63
2023-04-18T15:38:14.780Z,6.28
2023-04-18T15:40:43.470Z,2.65
2023-04-18T15:43:10.664Z,6.40
2023-04-18T15:45:37.642Z,3.17
2023-04-18T15:48:04.999Z,6.30
2023-04-18T15:50:33.618Z,4.88
2023-04-18T15:53:00.846Z,5.85
2023-04-18T15:55:27.875Z,5.53
2023-04-18T15:57:56.035Z,4.55
2023-04-18T16:00:23.954Z,6.22
2023-04-18T16:02:51.303Z,6.30
2023-04-18T16:05:19.025Z,5.50
2023-04-18T16:07:46.175Z,6.38
2023-04-18T16:10:15.181Z,5.93
2023-04-18T16:12:42.445Z,6.78
2023-04-18T16:15:10.581Z,5.78
2023-04-18T16:17:38.498Z,4.45
2023-04-18T16:20:08.224Z,6.25
2023-04-18T16:22:35.767Z,4.30
2023-04-18T16:25:03.692Z,6.85
2023-04-18T16:27:32.542Z,6.35
2023-04-18T16:29:59.520Z,4.63
2023-04-18T16:32:26.584Z,5.93
2023-04-18T16:34:53.604Z,6.68
2023-04-18T16:37:20.809Z,6.82
2023-04-18T16:39:47.828Z,7.13
2023-04-18T16:42:15.889Z,6.65
2023-04-18T16:44:44.824Z,6.20
2023-04-18T16:47:11.817Z,6.60
2023-04-18T16:49:38.975Z,5.88
2023-04-18T16:52:06.004Z,5.53
2023-04-18T16:54:36.871Z,6.75
2023-04-18T16:57:04.853Z,6.25
2023-04-18T16:59:32.148Z,6.35
2023-04-18T17:02:00.010Z,6.43
2023-04-18T17:04:27.549Z,6.68
2023-04-18T17:06:58.011Z,5.45
2023-04-18T17:09:25.377Z,4.70
2023-04-18T17:11:52.365Z,6.15
2023-04-18T17:14:19.426Z,6.57
2023-04-18T17:16:46.549Z,6.53
2023-04-18T17:19:13.951Z,6.13
2023-04-18T17:21:41.347Z,5.70
2023-04-18T17:24:09.244Z,5.20
2023-04-18T17:26:38.638Z,5.65
2023-04-18T17:29:05.761Z,5.90
2023-04-18T17:31:33.237Z,6.32
2023-04-18T17:34:00.721Z,5.65
2023-04-18T17:36:27.849Z,3.75
2023-04-18T17:38:55.507Z,5.90
2023-04-18T17:41:22.719Z,6.78
2023-04-18T17:43:51.043Z,5.43
2023-04-18T17:46:18.333Z,6.20
2023-04-18T17:48:45.451Z,6.97
2023-04-18T17:51:12.601Z,6.78
2023-04-18T17:53:39.693Z,6.57
2023-04-18T17:56:06.795Z,5.97
2023-04-18T17:58:33.761Z,6.50
2023-04-18T18:01:01.308Z,6.85
2023-04-18T18:03:28.630Z,6.80
2023-04-18T18:05:55.873Z,6.63
2023-04-18T18:08:25.033Z,6.72
2023-04-18T18:10:52.094Z,6.78
2023-04-18T18:13:19.069Z,6.72
2023-04-18T18:15:46.122Z,6.65
2023-04-18T18:18:13.186Z,6.50
2023-04-18T18:20:43.243Z,6.43
2023-04-18T18:23:10.331Z,5.90
2023-04-18T18:25:37.831Z,7.43
2023-04-18T18:28:04.978Z,7.20
2023-04-18T18:30:31.983Z,6.32
2023-04-18T18:32:59.392Z,5.78
2023-04-18T18:35:26.452Z,4.47
2023-04-18T18:37:53.437Z,6.35
2023-04-18T18:40:20.832Z,5.68
2023-04-18T18:42:51.280Z,5.93
2023-04-18T18:45:21.179Z,5.45
2023-04-18T18:47:48.827Z,6.65
2023-04-18T18:50:15.993Z,7.22
2023-04-18T18:52:43.313Z,6.72
2023-04-18T18:55:11.293Z,7.00
2023-04-18T18:57:38.307Z,7.10
2023-04-18T19:00:11.015Z,7.55
2023-04-18T19:05:07.097Z,6.30
2023-04-18T19:07:34.113Z,6.28
2023-04-18T19:10:01.926Z,6.18
2023-04-18T19:12:29.275Z,6.03
2023-04-18T19:14:56.419Z,6.15
2023-04-18T19:17:24.853Z,6.70
2023-04-18T19:19:53.076Z,7.70
2023-04-18T19:22:20.046Z,7.22
2023-04-18T19:24:47.494Z,6.38
2023-04-18T19:27:14.536Z,6.65
2023-04-18T19:29:41.570Z,6.45
2023-04-18T19:32:08.695Z,6.43
2023-04-18T19:34:35.859Z,6.65
2023-04-18T19:37:03.605Z,5.45
2023-04-18T19:39:30.584Z,5.55
2023-04-18T19:41:57.579Z,6.35
2023-04-18T19:44:24.683Z,7.00
2023-04-18T19:46:51.683Z,6.15
2023-04-18T19:49:18.738Z,6.75
2023-04-18T19:51:45.764Z,6.57
2023-04-18T19:54:13.341Z,7.95
2023-04-18T19:56:40.386Z,6.47
2023-04-18T19:59:07.531Z,7.10
2023-04-18T20:01:34.603Z,6.03
2023-04-18T20:04:02.089Z,5.68
2023-04-18T20:06:31.013Z,5.95
2023-04-18T20:08:58.067Z,6.00
2023-04-18T20:11:25.030Z,6.88
2023-04-18T20:13:54.457Z,5.55
2023-04-18T20:16:22.134Z,5.93
2023-04-18T20:18:50.047Z,6.65
2023-04-18T20:21:17.082Z,6.97
2023-04-18T20:23:45.272Z,5.75
2023-04-18T20:26:12.312Z,6.45
2023-04-18T20:28:39.520Z,5.38
2023-04-18T20:31:07.146Z,5.38
2023-04-18T20:33:34.611Z,5.72
2023-04-18T20:36:01.618Z,5.40
2023-04-18T20:38:29.435Z,5.40
2023-04-18T20:40:58.840Z,5.93
2023-04-18T20:43:26.145Z,5.70
2023-04-18T20:45:54.469Z,5.45
2023-04-18T20:48:21.681Z,5.60
2023-04-18T20:50:51.889Z,5.72
2023-04-18T20:53:25.115Z,5.53
2023-04-18T20:55:52.081Z,5.85
2023-04-18T20:58:19.089Z,5.35
2023-04-18T21:00:46.271Z,5.00
2023-04-18T21:03:14.164Z,5.03
2023-04-18T21:05:41.353Z,5.57
2023-04-18T21:08:08.295Z,5.07
2023-04-18T21:10:35.312Z,4.70
2023-04-18T21:13:02.313Z,5.47
2023-04-18T21:15:29.517Z,4.88
2023-04-18T21:17:56.644Z,4.97
2023-04-18T21:20:23.935Z,4.72
2023-04-18T21:22:51.008Z,4.70
2023-04-18T21:25:19.529Z,4.93
2023-04-18T21:27:46.580Z,5.07
2023-04-18T21:30:13.762Z,4.68
2023-04-18T21:32:40.754Z,4.72
2023-04-18T21:35:08.478Z,4.70
2023-04-18T21:37:35.488Z,4.45
2023-04-18T21:40:02.545Z,4.72
2023-04-18T21:42:29.513Z,4.75
2023-04-18T21:44:56.475Z,5.45
2023-04-18T21:47:23.480Z,5.22
2023-04-18T21:49:50.717Z,4.32
2023-04-18T21:52:17.772Z,4.07
2023-04-18T21:54:44.787Z,4.28
2023-04-18T21:57:11.883Z,4.20
2023-04-18T21:59:38.916Z,5.03
2023-04-18T22:02:06.033Z,4.50
2023-04-18T22:04:33.854Z,3.70
2023-04-18T22:07:00.924Z,4.55
2023-04-18T22:09:28.600Z,4.35
2023-04-18T22:11:56.968Z,4.45
2023-04-18T22:14:24.902Z,4.30
2023-04-18T22:16:52.030Z,5.15
2023-04-18T22:19:19.413Z,5.13
2023-04-18T22:21:46.586Z,4.78
2023-04-18T22:24:13.692Z,4.75
2023-04-18T22:26:41.042Z,4.15
2023-04-18T22:29:08.066Z,4.43
2023-04-18T22:31:35.101Z,4.43
2023-04-18T22:34:02.184Z,5.18
2023-04-18T22:36:29.129Z,4.15
2023-04-18T22:38:56.152Z,4.45
2023-04-18T22:41:23.292Z,4.90
2023-04-18T22:43:50.476Z,3.90
2023-04-18T22:46:17.581Z,5.15
2023-04-18T22:48:46.180Z,4.68
2023-04-18T22:51:14.799Z,4.75
2023-04-18T22:53:41.745Z,4.72
2023-04-18T22:56:08.697Z,4.10
2023-04-18T22:58:35.743Z,4.55
2023-04-18T23:01:02.777Z,4.03
2023-04-18T23:03:34.330Z,3.92
2023-04-18T23:06:01.644Z,3.73
2023-04-18T23:08:28.949Z,4.57
2023-04-18T23:10:55.921Z,4.65
2023-04-18T23:13:22.923Z,4.47
2023-04-18T23:15:50.045Z,4.43
2023-04-18T23:18:17.072Z,4.65
2023-04-18T23:20:44.101Z,4.50
2023-04-18T23:23:11.196Z,4.22
2023-04-18T23:25:38.376Z,4.60
2023-04-18T23:28:06.344Z,3.80
2023-04-18T23:30:36.951Z,4.00
2023-04-18T23:33:04.029Z,4.85
2023-04-18T23:35:31.122Z,4.55
2023-04-18T23:37:58.161Z,4.88
2023-04-18T23:40:25.367Z,4.63
2023-04-18T23:42:52.372Z,4.88
2023-04-18T23:45:19.498Z,4.57
2023-04-18T23:47:46.539Z,4.28
2023-04-18T23:50:13.593Z,4.55
2023-04-18T23:52:40.617Z,4.60
2023-04-18T23:55:08.149Z,4.85
2023-04-18T23:57:35.128Z,4.20
